KBVS

Skagit Regional Airport

Burlington/Mount Vernon, Washington, USA
METAR KBVS 161015Z AUTO 00000KT 3/4SM BR BKN048 OVC055 01/01 A3028 RMK A01
Observed Flight Rules
Dec-16 @ 10:15 UTC (36 minutes ago) Instrument Flight Rules
Wind Visibility Clouds Conditions
Calm 3/4 miles
  • Broken at 4,800' AGL
  • Overcast at 5,500' AGL
  • Mist
Temperatures Readings
Current 1°C / 34°F
Dewpoint 1°C / 34°F
Humidity 100%
Altimeter 30.28" Hg
Pressure 1025 hPa
Elevation 43
METAR KBVS 161015Z AUTO 00000KT 3/4SM BR BKN048 OVC055 01/01 A3028 RMK A01
Observed Flight Rules
Dec-16 @ 10:15 UTC
(36 minutes ago)
LIFR
Wind Visibility
Calm 3/4 miles
Clouds
  • Broken at 4,800' AGL
  • Overcast at 5,500' AGL
Conditions
  • Mist
Temperature Dewpoint
1°C / 34°F 1°C / 34°F
Humidity Altimeter Pressure
100% 30.28" Hg 1025 hPa